sensor_id;sensor_type;location;lat;lon;timestamp;P1;durP1;ratioP1;P2;durP2;ratioP2
31990;SDS011;18508;49.386;8.370;2022-09-12T00:01:42;11.60;;;7.22;;
31990;SDS011;18508;49.386;8.370;2022-09-12T00:04:11;10.52;;;6.68;;
31990;SDS011;18508;49.386;8.370;2022-09-12T00:06:39;10.80;;;6.10;;
31990;SDS011;18508;49.386;8.370;2022-09-12T00:09:08;12.93;;;6.95;;
31990;SDS011;18508;49.386;8.370;2022-09-12T00:11:41;10.88;;;6.63;;
31990;SDS011;18508;49.386;8.370;2022-09-12T00:14:12;9.50;;;5.53;;
31990;SDS011;18508;49.386;8.370;2022-09-12T00:16:42;9.70;;;5.22;;
31990;SDS011;18508;49.386;8.370;2022-09-12T00:19:10;9.05;;;5.30;;
31990;SDS011;18508;49.386;8.370;2022-09-12T00:21:39;7.50;;;4.55;;
31990;SDS011;18508;49.386;8.370;2022-09-12T00:24:08;10.38;;;5.65;;
31990;SDS011;18508;49.386;8.370;2022-09-12T00:26:37;8.15;;;4.97;;
31990;SDS011;18508;49.386;8.370;2022-09-12T00:29:07;9.48;;;5.68;;
31990;SDS011;18508;49.386;8.370;2022-09-12T00:31:36;10.27;;;5.53;;
31990;SDS011;18508;49.386;8.370;2022-09-12T00:34:05;8.48;;;4.85;;
31990;SDS011;18508;49.386;8.370;2022-09-12T00:36:33;10.18;;;5.63;;
31990;SDS011;18508;49.386;8.370;2022-09-12T00:39:02;10.23;;;5.97;;
31990;SDS011;18508;49.386;8.370;2022-09-12T00:41:31;10.45;;;5.63;;
31990;SDS011;18508;49.386;8.370;2022-09-12T00:44:03;9.88;;;5.38;;
31990;SDS011;18508;49.386;8.370;2022-09-12T00:46:47;10.32;;;5.88;;
31990;SDS011;18508;49.386;8.370;2022-09-12T00:49:20;11.05;;;5.68;;
31990;SDS011;18508;49.386;8.370;2022-09-12T00:51:53;10.32;;;5.47;;
31990;SDS011;18508;49.386;8.370;2022-09-12T00:54:25;10.47;;;6.03;;
31990;SDS011;18508;49.386;8.370;2022-09-12T00:57:05;10.23;;;5.63;;
31990;SDS011;18508;49.386;8.370;2022-09-12T00:59:36;9.90;;;5.70;;
31990;SDS011;18508;49.386;8.370;2022-09-12T01:02:08;9.65;;;5.97;;
31990;SDS011;18508;49.386;8.370;2022-09-12T01:04:38;10.35;;;5.43;;
31990;SDS011;18508;49.386;8.370;2022-09-12T01:07:08;13.43;;;6.13;;
31990;SDS011;18508;49.386;8.370;2022-09-12T01:09:37;10.20;;;5.90;;
31990;SDS011;18508;49.386;8.370;2022-09-12T01:12:11;12.45;;;6.65;;
31990;SDS011;18508;49.386;8.370;2022-09-12T01:14:42;9.15;;;5.45;;
31990;SDS011;18508;49.386;8.370;2022-09-12T01:17:12;12.00;;;6.55;;
31990;SDS011;18508;49.386;8.370;2022-09-12T01:19:47;11.15;;;6.40;;
31990;SDS011;18508;49.386;8.370;2022-09-12T01:22:45;10.07;;;6.00;;
31990;SDS011;18508;49.386;8.370;2022-09-12T01:25:37;12.02;;;5.88;;
31990;SDS011;18508;49.386;8.370;2022-09-12T01:28:27;11.43;;;6.50;;
31990;SDS011;18508;49.386;8.370;2022-09-12T01:31:11;12.00;;;6.65;;
31990;SDS011;18508;49.386;8.370;2022-09-12T01:33:47;10.75;;;6.65;;
31990;SDS011;18508;49.386;8.370;2022-09-12T01:36:31;12.77;;;6.50;;
31990;SDS011;18508;49.386;8.370;2022-09-12T01:39:08;11.70;;;6.25;;
31990;SDS011;18508;49.386;8.370;2022-09-12T01:41:45;10.60;;;6.35;;
31990;SDS011;18508;49.386;8.370;2022-09-12T01:44:22;11.82;;;6.35;;
31990;SDS011;18508;49.386;8.370;2022-09-12T01:47:01;10.27;;;6.30;;
31990;SDS011;18508;49.386;8.370;2022-09-12T01:49:35;11.65;;;6.85;;
31990;SDS011;18508;49.386;8.370;2022-09-12T01:52:09;15.25;;;7.63;;
31990;SDS011;18508;49.386;8.370;2022-09-12T01:54:43;13.05;;;7.00;;
31990;SDS011;18508;49.386;8.370;2022-09-12T01:57:16;12.77;;;6.63;;
31990;SDS011;18508;49.386;8.370;2022-09-12T01:59:51;12.90;;;6.97;;
31990;SDS011;18508;49.386;8.370;2022-09-12T02:02:26;12.75;;;6.90;;
31990;SDS011;18508;49.386;8.370;2022-09-12T02:04:58;12.63;;;6.55;;
31990;SDS011;18508;49.386;8.370;2022-09-12T02:07:31;11.18;;;6.40;;
31990;SDS011;18508;49.386;8.370;2022-09-12T02:10:04;13.05;;;6.93;;
31990;SDS011;18508;49.386;8.370;2022-09-12T02:12:37;12.40;;;6.25;;
31990;SDS011;18508;49.386;8.370;2022-09-12T02:15:10;9.75;;;5.90;;
31990;SDS011;18508;49.386;8.370;2022-09-12T02:17:43;12.68;;;6.45;;
31990;SDS011;18508;49.386;8.370;2022-09-12T02:20:19;10.95;;;6.32;;
31990;SDS011;18508;49.386;8.370;2022-09-12T02:23:10;11.82;;;6.72;;
31990;SDS011;18508;49.386;8.370;2022-09-12T02:25:41;11.57;;;6.80;;
31990;SDS011;18508;49.386;8.370;2022-09-12T02:28:12;11.50;;;6.88;;
31990;SDS011;18508;49.386;8.370;2022-09-12T02:30:48;11.43;;;5.90;;
31990;SDS011;18508;49.386;8.370;2022-09-12T02:33:25;10.40;;;6.28;;
31990;SDS011;18508;49.386;8.370;2022-09-12T02:35:57;11.68;;;6.88;;
31990;SDS011;18508;49.386;8.370;2022-09-12T02:38:32;11.82;;;6.50;;
31990;SDS011;18508;49.386;8.370;2022-09-12T02:41:06;11.82;;;6.32;;
31990;SDS011;18508;49.386;8.370;2022-09-12T02:43:34;11.80;;;6.43;;
31990;SDS011;18508;49.386;8.370;2022-09-12T02:46:04;11.52;;;6.68;;
31990;SDS011;18508;49.386;8.370;2022-09-12T02:48:36;11.45;;;6.72;;
31990;SDS011;18508;49.386;8.370;2022-09-12T02:51:08;12.32;;;6.95;;
31990;SDS011;18508;49.386;8.370;2022-09-12T02:53:37;11.77;;;6.13;;
31990;SDS011;18508;49.386;8.370;2022-09-12T02:56:10;9.60;;;5.75;;
31990;SDS011;18508;49.386;8.370;2022-09-12T02:58:42;10.65;;;6.03;;
31990;SDS011;18508;49.386;8.370;2022-09-12T03:01:11;10.55;;;6.15;;
31990;SDS011;18508;49.386;8.370;2022-09-12T03:03:56;10.98;;;5.35;;
31990;SDS011;18508;49.386;8.370;2022-09-12T03:06:38;10.32;;;5.20;;
31990;SDS011;18508;49.386;8.370;2022-09-12T03:09:14;10.02;;;5.80;;
31990;SDS011;18508;49.386;8.370;2022-09-12T03:11:50;11.07;;;5.78;;
31990;SDS011;18508;49.386;8.370;2022-09-12T03:14:31;9.38;;;5.50;;
31990;SDS011;18508;49.386;8.370;2022-09-12T03:17:17;12.63;;;6.22;;
31990;SDS011;18508;49.386;8.370;2022-09-12T03:19:53;11.70;;;6.43;;
31990;SDS011;18508;49.386;8.370;2022-09-12T03:22:27;12.40;;;6.95;;
31990;SDS011;18508;49.386;8.370;2022-09-12T03:25:01;10.57;;;6.13;;
31990;SDS011;18508;49.386;8.370;2022-09-12T03:27:35;11.55;;;6.35;;
31990;SDS011;18508;49.386;8.370;2022-09-12T03:30:07;11.07;;;6.45;;
31990;SDS011;18508;49.386;8.370;2022-09-12T03:32:41;11.52;;;6.28;;
31990;SDS011;18508;49.386;8.370;2022-09-12T03:35:12;10.35;;;5.50;;
31990;SDS011;18508;49.386;8.370;2022-09-12T03:37:48;10.18;;;5.63;;
31990;SDS011;18508;49.386;8.370;2022-09-12T03:40:17;10.10;;;5.43;;
31990;SDS011;18508;49.386;8.370;2022-09-12T03:42:46;11.27;;;5.03;;
31990;SDS011;18508;49.386;8.370;2022-09-12T03:45:14;12.02;;;6.10;;
31990;SDS011;18508;49.386;8.370;2022-09-12T03:47:42;10.40;;;6.00;;
31990;SDS011;18508;49.386;8.370;2022-09-12T03:50:10;11.80;;;6.25;;
31990;SDS011;18508;49.386;8.370;2022-09-12T03:52:39;10.63;;;5.97;;
31990;SDS011;18508;49.386;8.370;2022-09-12T03:55:08;12.82;;;6.28;;
31990;SDS011;18508;49.386;8.370;2022-09-12T03:57:37;11.48;;;6.25;;
31990;SDS011;18508;49.386;8.370;2022-09-12T04:00:06;10.50;;;5.68;;
31990;SDS011;18508;49.386;8.370;2022-09-12T04:02:35;12.43;;;6.85;;
31990;SDS011;18508;49.386;8.370;2022-09-12T04:05:03;11.30;;;5.72;;
31990;SDS011;18508;49.386;8.370;2022-09-12T04:07:32;10.20;;;6.05;;
31990;SDS011;18508;49.386;8.370;2022-09-12T04:10:01;11.02;;;6.10;;
31990;SDS011;18508;49.386;8.370;2022-09-12T04:12:29;9.57;;;5.68;;
31990;SDS011;18508;49.386;8.370;2022-09-12T04:14:57;10.52;;;5.95;;
31990;SDS011;18508;49.386;8.370;2022-09-12T04:17:39;9.20;;;5.15;;
31990;SDS011;18508;49.386;8.370;2022-09-12T04:20:07;12.82;;;6.35;;
31990;SDS011;18508;49.386;8.370;2022-09-12T04:22:36;11.77;;;5.95;;
31990;SDS011;18508;49.386;8.370;2022-09-12T04:25:08;10.57;;;5.88;;
31990;SDS011;18508;49.386;8.370;2022-09-12T04:27:37;9.93;;;5.95;;
31990;SDS011;18508;49.386;8.370;2022-09-12T04:30:06;10.70;;;5.63;;
31990;SDS011;18508;49.386;8.370;2022-09-12T04:32:35;10.23;;;5.93;;
31990;SDS011;18508;49.386;8.370;2022-09-12T04:35:05;12.20;;;6.30;;
31990;SDS011;18508;49.386;8.370;2022-09-12T04:37:33;9.40;;;5.43;;
31990;SDS011;18508;49.386;8.370;2022-09-12T04:40:04;10.38;;;6.15;;
31990;SDS011;18508;49.386;8.370;2022-09-12T04:42:34;9.82;;;5.70;;
31990;SDS011;18508;49.386;8.370;2022-09-12T04:45:02;13.00;;;6.13;;
31990;SDS011;18508;49.386;8.370;2022-09-12T04:47:31;12.43;;;6.47;;
31990;SDS011;18508;49.386;8.370;2022-09-12T04:50:00;10.63;;;5.80;;
31990;SDS011;18508;49.386;8.370;2022-09-12T04:52:28;10.82;;;5.47;;
31990;SDS011;18508;49.386;8.370;2022-09-12T04:54:56;10.50;;;6.07;;
31990;SDS011;18508;49.386;8.370;2022-09-12T04:57:25;12.93;;;5.63;;
31990;SDS011;18508;49.386;8.370;2022-09-12T04:59:55;9.20;;;5.18;;
31990;SDS011;18508;49.386;8.370;2022-09-12T05:02:24;9.32;;;5.43;;
31990;SDS011;18508;49.386;8.370;2022-09-12T05:04:52;9.95;;;5.63;;
31990;SDS011;18508;49.386;8.370;2022-09-12T05:07:22;11.23;;;5.55;;
31990;SDS011;18508;49.386;8.370;2022-09-12T05:09:55;11.32;;;5.88;;
31990;SDS011;18508;49.386;8.370;2022-09-12T05:12:24;11.40;;;5.93;;
31990;SDS011;18508;49.386;8.370;2022-09-12T05:14:53;10.00;;;5.55;;
31990;SDS011;18508;49.386;8.370;2022-09-12T05:17:24;9.30;;;5.18;;
31990;SDS011;18508;49.386;8.370;2022-09-12T05:19:55;10.70;;;5.82;;
31990;SDS011;18508;49.386;8.370;2022-09-12T05:22:23;10.38;;;6.03;;
31990;SDS011;18508;49.386;8.370;2022-09-12T05:24:51;11.55;;;5.20;;
31990;SDS011;18508;49.386;8.370;2022-09-12T05:27:20;12.48;;;6.30;;
31990;SDS011;18508;49.386;8.370;2022-09-12T05:29:49;12.77;;;6.25;;
31990;SDS011;18508;49.386;8.370;2022-09-12T05:32:18;10.85;;;6.03;;
31990;SDS011;18508;49.386;8.370;2022-09-12T05:34:50;10.38;;;5.88;;
31990;SDS011;18508;49.386;8.370;2022-09-12T05:37:20;11.30;;;6.22;;
31990;SDS011;18508;49.386;8.370;2022-09-12T05:39:50;12.35;;;6.22;;
31990;SDS011;18508;49.386;8.370;2022-09-12T05:42:18;11.90;;;5.97;;
31990;SDS011;18508;49.386;8.370;2022-09-12T05:44:46;11.50;;;5.97;;
31990;SDS011;18508;49.386;8.370;2022-09-12T05:47:15;13.55;;;7.15;;
31990;SDS011;18508;49.386;8.370;2022-09-12T05:49:44;13.75;;;7.18;;
31990;SDS011;18508;49.386;8.370;2022-09-12T05:52:14;13.27;;;7.28;;
31990;SDS011;18508;49.386;8.370;2022-09-12T05:54:42;18.08;;;7.57;;
31990;SDS011;18508;49.386;8.370;2022-09-12T05:57:13;13.20;;;7.68;;
31990;SDS011;18508;49.386;8.370;2022-09-12T05:59:43;20.40;;;10.18;;
31990;SDS011;18508;49.386;8.370;2022-09-12T06:02:11;17.23;;;8.70;;
31990;SDS011;18508;49.386;8.370;2022-09-12T06:04:40;21.15;;;10.40;;
31990;SDS011;18508;49.386;8.370;2022-09-12T06:07:09;21.27;;;11.10;;
31990;SDS011;18508;49.386;8.370;2022-09-12T06:09:38;22.25;;;10.40;;
31990;SDS011;18508;49.386;8.370;2022-09-12T06:12:11;24.73;;;11.32;;
31990;SDS011;18508;49.386;8.370;2022-09-12T06:14:40;19.20;;;10.32;;
31990;SDS011;18508;49.386;8.370;2022-09-12T06:17:09;21.38;;;10.88;;
31990;SDS011;18508;49.386;8.370;2022-09-12T06:19:38;17.80;;;9.70;;
31990;SDS011;18508;49.386;8.370;2022-09-12T06:22:06;21.92;;;9.50;;
31990;SDS011;18508;49.386;8.370;2022-09-12T06:24:35;17.13;;;10.05;;
31990;SDS011;18508;49.386;8.370;2022-09-12T06:27:05;16.70;;;8.82;;
31990;SDS011;18508;49.386;8.370;2022-09-12T06:29:33;18.38;;;9.77;;
31990;SDS011;18508;49.386;8.370;2022-09-12T06:32:03;18.80;;;9.93;;
31990;SDS011;18508;49.386;8.370;2022-09-12T06:34:33;16.90;;;9.68;;
31990;SDS011;18508;49.386;8.370;2022-09-12T06:37:02;19.42;;;10.30;;
31990;SDS011;18508;49.386;8.370;2022-09-12T06:39:30;21.33;;;10.90;;
31990;SDS011;18508;49.386;8.370;2022-09-12T06:42:05;17.55;;;9.75;;
31990;SDS011;18508;49.386;8.370;2022-09-12T06:44:35;17.10;;;9.25;;
31990;SDS011;18508;49.386;8.370;2022-09-12T06:47:03;19.13;;;10.18;;
31990;SDS011;18508;49.386;8.370;2022-09-12T06:49:31;19.88;;;10.30;;
31990;SDS011;18508;49.386;8.370;2022-09-12T06:52:00;16.27;;;10.27;;
31990;SDS011;18508;49.386;8.370;2022-09-12T07:09:10;17.25;;;9.25;;
31990;SDS011;18508;49.386;8.370;2022-09-12T07:11:41;18.63;;;10.93;;
31990;SDS011;18508;49.386;8.370;2022-09-12T07:14:11;15.93;;;9.15;;
31990;SDS011;18508;49.386;8.370;2022-09-12T07:16:41;18.92;;;10.38;;
31990;SDS011;18508;49.386;8.370;2022-09-12T07:19:09;18.17;;;11.13;;
31990;SDS011;18508;49.386;8.370;2022-09-12T07:21:38;17.30;;;9.85;;
31990;SDS011;18508;49.386;8.370;2022-09-12T07:24:07;17.92;;;10.02;;
31990;SDS011;18508;49.386;8.370;2022-09-12T07:26:38;17.95;;;10.02;;
31990;SDS011;18508;49.386;8.370;2022-09-12T07:29:08;15.90;;;9.30;;
31990;SDS011;18508;49.386;8.370;2022-09-12T07:32:01;18.35;;;10.27;;
31990;SDS011;18508;49.386;8.370;2022-09-12T07:34:31;17.55;;;9.80;;
31990;SDS011;18508;49.386;8.370;2022-09-12T07:36:59;17.80;;;10.40;;
31990;SDS011;18508;49.386;8.370;2022-09-12T07:39:29;19.13;;;9.70;;
31990;SDS011;18508;49.386;8.370;2022-09-12T07:41:58;18.10;;;10.15;;
31990;SDS011;18508;49.386;8.370;2022-09-12T07:44:27;19.98;;;10.80;;
31990;SDS011;18508;49.386;8.370;2022-09-12T07:46:56;19.38;;;10.40;;
31990;SDS011;18508;49.386;8.370;2022-09-12T07:49:24;18.77;;;10.05;;
31990;SDS011;18508;49.386;8.370;2022-09-12T07:51:52;18.05;;;10.30;;
31990;SDS011;18508;49.386;8.370;2022-09-12T07:54:21;18.17;;;10.32;;
31990;SDS011;18508;49.386;8.370;2022-09-12T07:56:51;16.55;;;9.75;;
31990;SDS011;18508;49.386;8.370;2022-09-12T07:59:20;17.10;;;9.82;;
31990;SDS011;18508;49.386;8.370;2022-09-12T08:02:09;15.65;;;9.32;;
31990;SDS011;18508;49.386;8.370;2022-09-12T08:04:42;15.20;;;7.97;;
31990;SDS011;18508;49.386;8.370;2022-09-12T08:07:11;14.93;;;8.20;;
31990;SDS011;18508;49.386;8.370;2022-09-12T08:09:39;15.70;;;8.45;;
31990;SDS011;18508;49.386;8.370;2022-09-12T08:12:10;14.00;;;7.68;;
31990;SDS011;18508;49.386;8.370;2022-09-12T08:14:37;16.50;;;8.43;;
31990;SDS011;18508;49.386;8.370;2022-09-12T08:17:05;13.82;;;8.52;;
31990;SDS011;18508;49.386;8.370;2022-09-12T08:19:34;13.95;;;8.02;;
31990;SDS011;18508;49.386;8.370;2022-09-12T08:22:02;11.77;;;7.05;;
31990;SDS011;18508;49.386;8.370;2022-09-12T08:24:31;13.15;;;8.18;;
31990;SDS011;18508;49.386;8.370;2022-09-12T08:26:59;13.93;;;8.05;;
31990;SDS011;18508;49.386;8.370;2022-09-12T08:29:29;13.73;;;8.40;;
31990;SDS011;18508;49.386;8.370;2022-09-12T08:31:57;13.07;;;7.60;;
31990;SDS011;18508;49.386;8.370;2022-09-12T08:34:25;11.77;;;6.85;;
31990;SDS011;18508;49.386;8.370;2022-09-12T08:36:53;11.75;;;7.57;;
31990;SDS011;18508;49.386;8.370;2022-09-12T08:39:22;9.52;;;6.15;;
31990;SDS011;18508;49.386;8.370;2022-09-12T08:41:55;11.50;;;6.85;;
31990;SDS011;18508;49.386;8.370;2022-09-12T08:47:34;10.55;;;7.03;;
31990;SDS011;18508;49.386;8.370;2022-09-12T08:50:09;9.63;;;6.45;;
31990;SDS011;18508;49.386;8.370;2022-09-12T08:52:42;10.07;;;6.35;;
31990;SDS011;18508;49.386;8.370;2022-09-12T08:55:28;10.20;;;6.47;;
31990;SDS011;18508;49.386;8.370;2022-09-12T08:57:58;10.05;;;6.32;;
31990;SDS011;18508;49.386;8.370;2022-09-12T09:00:39;9.18;;;5.32;;
31990;SDS011;18508;49.386;8.370;2022-09-12T09:06:12;8.68;;;5.32;;
31990;SDS011;18508;49.386;8.370;2022-09-12T09:09:02;7.70;;;4.80;;
31990;SDS011;18508;49.386;8.370;2022-09-12T09:11:41;8.40;;;5.22;;
31990;SDS011;18508;49.386;8.370;2022-09-12T09:14:25;7.55;;;4.45;;
31990;SDS011;18508;49.386;8.370;2022-09-12T09:17:30;6.82;;;4.43;;
31990;SDS011;18508;49.386;8.370;2022-09-12T09:20:04;6.45;;;4.25;;
31990;SDS011;18508;49.386;8.370;2022-09-12T09:22:43;6.47;;;4.57;;
31990;SDS011;18508;49.386;8.370;2022-09-12T09:25:20;6.25;;;3.83;;
31990;SDS011;18508;49.386;8.370;2022-09-12T09:27:52;7.13;;;3.92;;
31990;SDS011;18508;49.386;8.370;2022-09-12T09:30:25;6.20;;;3.90;;
31990;SDS011;18508;49.386;8.370;2022-09-12T09:32:57;6.00;;;4.55;;
31990;SDS011;18508;49.386;8.370;2022-09-12T09:35:30;6.63;;;4.28;;
31990;SDS011;18508;49.386;8.370;2022-09-12T09:38:20;6.18;;;4.00;;
31990;SDS011;18508;49.386;8.370;2022-09-12T09:40:56;6.38;;;4.60;;
31990;SDS011;18508;49.386;8.370;2022-09-12T09:43:34;5.40;;;3.83;;
31990;SDS011;18508;49.386;8.370;2022-09-12T09:46:06;5.47;;;4.07;;
31990;SDS011;18508;49.386;8.370;2022-09-12T09:48:36;6.32;;;4.45;;
31990;SDS011;18508;49.386;8.370;2022-09-12T09:51:08;6.78;;;4.47;;
31990;SDS011;18508;49.386;8.370;2022-09-12T09:53:39;6.40;;;4.10;;
31990;SDS011;18508;49.386;8.370;2022-09-12T09:56:14;5.13;;;3.08;;
31990;SDS011;18508;49.386;8.370;2022-09-12T09:58:53;4.43;;;3.33;;
31990;SDS011;18508;49.386;8.370;2022-09-12T10:01:25;4.83;;;2.87;;
31990;SDS011;18508;49.386;8.370;2022-09-12T10:03:55;4.80;;;3.40;;
31990;SDS011;18508;49.386;8.370;2022-09-12T10:06:27;5.13;;;3.60;;
31990;SDS011;18508;49.386;8.370;2022-09-12T10:09:03;7.60;;;3.42;;
31990;SDS011;18508;49.386;8.370;2022-09-12T10:11:34;4.88;;;3.20;;
31990;SDS011;18508;49.386;8.370;2022-09-12T10:14:24;4.63;;;2.92;;
31990;SDS011;18508;49.386;8.370;2022-09-12T10:16:56;4.22;;;2.90;;
31990;SDS011;18508;49.386;8.370;2022-09-12T10:19:33;4.07;;;2.78;;
31990;SDS011;18508;49.386;8.370;2022-09-12T10:22:12;4.43;;;2.90;;
31990;SDS011;18508;49.386;8.370;2022-09-12T10:24:46;5.13;;;3.47;;
31990;SDS011;18508;49.386;8.370;2022-09-12T10:27:19;4.88;;;2.78;;
31990;SDS011;18508;49.386;8.370;2022-09-12T10:29:51;3.97;;;2.85;;
31990;SDS011;18508;49.386;8.370;2022-09-12T10:34:58;3.60;;;2.40;;
31990;SDS011;18508;49.386;8.370;2022-09-12T10:37:31;3.55;;;2.28;;
31990;SDS011;18508;49.386;8.370;2022-09-12T10:40:02;4.05;;;3.05;;
31990;SDS011;18508;49.386;8.370;2022-09-12T10:42:46;3.30;;;2.30;;
31990;SDS011;18508;49.386;8.370;2022-09-12T10:45:18;3.67;;;2.53;;
31990;SDS011;18508;49.386;8.370;2022-09-12T10:47:50;4.10;;;2.45;;
31990;SDS011;18508;49.386;8.370;2022-09-12T10:50:28;2.70;;;1.98;;
31990;SDS011;18508;49.386;8.370;2022-09-12T10:53:12;4.00;;;2.70;;
31990;SDS011;18508;49.386;8.370;2022-09-12T10:55:49;3.97;;;2.92;;
31990;SDS011;18508;49.386;8.370;2022-09-12T10:58:40;3.03;;;2.38;;
31990;SDS011;18508;49.386;8.370;2022-09-12T11:01:30;3.83;;;2.50;;
31990;SDS011;18508;49.386;8.370;2022-09-12T11:07:04;3.25;;;2.30;;
31990;SDS011;18508;49.386;8.370;2022-09-12T11:09:46;4.25;;;2.67;;
31990;SDS011;18508;49.386;8.370;2022-09-12T11:12:25;4.15;;;2.70;;
31990;SDS011;18508;49.386;8.370;2022-09-12T11:15:11;3.38;;;2.38;;
31990;SDS011;18508;49.386;8.370;2022-09-12T11:17:53;3.25;;;2.47;;
31990;SDS011;18508;49.386;8.370;2022-09-12T11:20:33;3.55;;;2.35;;
31990;SDS011;18508;49.386;8.370;2022-09-12T11:23:22;4.25;;;2.58;;
31990;SDS011;18508;49.386;8.370;2022-09-12T11:26:10;3.83;;;2.70;;
31990;SDS011;18508;49.386;8.370;2022-09-12T11:28:54;3.67;;;2.67;;
31990;SDS011;18508;49.386;8.370;2022-09-12T11:31:39;3.87;;;2.63;;
31990;SDS011;18508;49.386;8.370;2022-09-12T11:34:32;4.68;;;2.65;;
31990;SDS011;18508;49.386;8.370;2022-09-12T11:37:17;3.25;;;2.40;;
31990;SDS011;18508;49.386;8.370;2022-09-12T11:40:01;4.18;;;2.78;;
31990;SDS011;18508;49.386;8.370;2022-09-12T11:42:41;3.45;;;2.45;;
31990;SDS011;18508;49.386;8.370;2022-09-12T11:45:14;3.25;;;2.35;;
31990;SDS011;18508;49.386;8.370;2022-09-12T11:47:48;3.55;;;2.63;;
31990;SDS011;18508;49.386;8.370;2022-09-12T11:50:23;3.00;;;2.25;;
31990;SDS011;18508;49.386;8.370;2022-09-12T11:52:56;3.35;;;2.35;;
31990;SDS011;18508;49.386;8.370;2022-09-12T11:55:43;3.00;;;2.22;;
31990;SDS011;18508;49.386;8.370;2022-09-12T11:58:25;3.88;;;2.58;;
31990;SDS011;18508;49.386;8.370;2022-09-12T12:00:55;6.30;;;4.10;;
31990;SDS011;18508;49.386;8.370;2022-09-12T12:03:30;4.05;;;2.50;;
31990;SDS011;18508;49.386;8.370;2022-09-12T12:06:04;3.08;;;2.42;;
31990;SDS011;18508;49.386;8.370;2022-09-12T12:08:41;3.63;;;2.55;;
31990;SDS011;18508;49.386;8.370;2022-09-12T12:11:22;3.10;;;2.60;;
31990;SDS011;18508;49.386;8.370;2022-09-12T12:13:55;4.05;;;2.58;;
31990;SDS011;18508;49.386;8.370;2022-09-12T12:16:28;3.63;;;2.30;;
31990;SDS011;18508;49.386;8.370;2022-09-12T12:18:58;3.17;;;2.53;;
31990;SDS011;18508;49.386;8.370;2022-09-12T12:21:36;3.47;;;2.33;;
31990;SDS011;18508;49.386;8.370;2022-09-12T12:24:14;2.90;;;1.95;;
31990;SDS011;18508;49.386;8.370;2022-09-12T12:26:55;2.72;;;1.63;;
31990;SDS011;18508;49.386;8.370;2022-09-12T12:29:36;3.20;;;2.30;;
31990;SDS011;18508;49.386;8.370;2022-09-12T12:32:25;2.92;;;2.28;;
31990;SDS011;18508;49.386;8.370;2022-09-12T12:38:10;3.13;;;2.15;;
31990;SDS011;18508;49.386;8.370;2022-09-12T12:47:12;3.00;;;2.10;;
31990;SDS011;18508;49.386;8.370;2022-09-12T12:49:48;2.85;;;1.85;;
31990;SDS011;18508;49.386;8.370;2022-09-12T12:52:20;2.60;;;1.90;;
31990;SDS011;18508;49.386;8.370;2022-09-12T12:54:51;2.47;;;1.85;;
31990;SDS011;18508;49.386;8.370;2022-09-12T12:57:27;3.05;;;2.08;;
31990;SDS011;18508;49.386;8.370;2022-09-12T13:00:29;3.15;;;2.00;;
31990;SDS011;18508;49.386;8.370;2022-09-12T13:03:08;3.10;;;1.75;;
31990;SDS011;18508;49.386;8.370;2022-09-12T13:05:45;2.80;;;1.80;;
31990;SDS011;18508;49.386;8.370;2022-09-12T13:08:25;2.58;;;1.77;;
31990;SDS011;18508;49.386;8.370;2022-09-12T13:10:58;3.33;;;2.17;;
31990;SDS011;18508;49.386;8.370;2022-09-12T13:13:30;2.20;;;1.63;;
31990;SDS011;18508;49.386;8.370;2022-09-12T13:16:02;2.15;;;1.60;;
31990;SDS011;18508;49.386;8.370;2022-09-12T13:18:37;1.95;;;1.40;;
31990;SDS011;18508;49.386;8.370;2022-09-12T13:21:13;2.17;;;1.45;;
31990;SDS011;18508;49.386;8.370;2022-09-12T13:23:42;2.22;;;1.35;;
31990;SDS011;18508;49.386;8.370;2022-09-12T13:26:12;2.30;;;1.40;;
31990;SDS011;18508;49.386;8.370;2022-09-12T13:28:48;1.80;;;1.17;;
31990;SDS011;18508;49.386;8.370;2022-09-12T13:31:20;1.92;;;1.23;;
31990;SDS011;18508;49.386;8.370;2022-09-12T13:33:57;1.92;;;1.33;;
31990;SDS011;18508;49.386;8.370;2022-09-12T13:39:33;2.45;;;1.45;;
31990;SDS011;18508;49.386;8.370;2022-09-12T13:42:30;1.90;;;1.40;;
31990;SDS011;18508;49.386;8.370;2022-09-12T13:45:09;2.17;;;1.30;;
31990;SDS011;18508;49.386;8.370;2022-09-12T13:47:41;2.10;;;1.40;;
31990;SDS011;18508;49.386;8.370;2022-09-12T13:50:16;2.45;;;1.45;;
31990;SDS011;18508;49.386;8.370;2022-09-12T13:52:48;3.17;;;1.17;;
31990;SDS011;18508;49.386;8.370;2022-09-12T13:55:24;1.90;;;1.10;;
31990;SDS011;18508;49.386;8.370;2022-09-12T13:57:57;2.25;;;1.45;;
31990;SDS011;18508;49.386;8.370;2022-09-12T14:00:28;2.08;;;1.40;;
31990;SDS011;18508;49.386;8.370;2022-09-12T14:02:58;1.70;;;1.20;;
31990;SDS011;18508;49.386;8.370;2022-09-12T14:06:00;2.22;;;1.52;;
31990;SDS011;18508;49.386;8.370;2022-09-12T14:08:31;1.98;;;1.23;;
31990;SDS011;18508;49.386;8.370;2022-09-12T14:11:00;2.92;;;1.40;;
31990;SDS011;18508;49.386;8.370;2022-09-12T14:13:36;1.67;;;1.33;;
31990;SDS011;18508;49.386;8.370;2022-09-12T14:16:08;2.05;;;1.40;;
31990;SDS011;18508;49.386;8.370;2022-09-12T14:21:15;1.73;;;1.20;;
31990;SDS011;18508;49.386;8.370;2022-09-12T14:23:53;1.50;;;1.10;;
31990;SDS011;18508;49.386;8.370;2022-09-12T14:26:22;2.05;;;1.33;;
31990;SDS011;18508;49.386;8.370;2022-09-12T14:28:51;2.17;;;1.13;;
31990;SDS011;18508;49.386;8.370;2022-09-12T14:31:21;1.88;;;1.20;;
31990;SDS011;18508;49.386;8.370;2022-09-12T14:33:52;1.27;;;1.00;;
31990;SDS011;18508;49.386;8.370;2022-09-12T14:36:28;0.95;;;0.75;;
31990;SDS011;18508;49.386;8.370;2022-09-12T14:38:59;1.08;;;0.73;;
31990;SDS011;18508;49.386;8.370;2022-09-12T14:41:37;1.08;;;0.80;;
31990;SDS011;18508;49.386;8.370;2022-09-12T14:44:12;1.27;;;0.88;;
31990;SDS011;18508;49.386;8.370;2022-09-12T14:46:44;1.27;;;1.10;;
31990;SDS011;18508;49.386;8.370;2022-09-12T14:49:14;1.27;;;0.95;;
31990;SDS011;18508;49.386;8.370;2022-09-12T14:51:55;1.73;;;1.10;;
31990;SDS011;18508;49.386;8.370;2022-09-12T14:54:35;1.75;;;1.00;;
31990;SDS011;18508;49.386;8.370;2022-09-12T14:57:05;1.25;;;1.00;;
31990;SDS011;18508;49.386;8.370;2022-09-12T14:59:44;1.95;;;1.30;;
31990;SDS011;18508;49.386;8.370;2022-09-12T15:08:00;1.38;;;1.05;;
31990;SDS011;18508;49.386;8.370;2022-09-12T15:10:29;2.38;;;1.13;;
31990;SDS011;18508;49.386;8.370;2022-09-12T15:13:14;1.95;;;1.33;;
31990;SDS011;18508;49.386;8.370;2022-09-12T15:15:44;1.13;;;1.00;;
31990;SDS011;18508;49.386;8.370;2022-09-12T15:18:14;1.55;;;1.17;;
31990;SDS011;18508;49.386;8.370;2022-09-12T15:20:43;1.50;;;0.98;;
31990;SDS011;18508;49.386;8.370;2022-09-12T15:23:16;1.65;;;1.20;;
31990;SDS011;18508;49.386;8.370;2022-09-12T15:25:46;1.70;;;1.13;;
31990;SDS011;18508;49.386;8.370;2022-09-12T15:28:17;1.77;;;1.25;;
31990;SDS011;18508;49.386;8.370;2022-09-12T15:30:46;1.60;;;1.00;;
31990;SDS011;18508;49.386;8.370;2022-09-12T15:33:18;1.58;;;1.20;;
31990;SDS011;18508;49.386;8.370;2022-09-12T15:35:48;1.88;;;1.10;;
31990;SDS011;18508;49.386;8.370;2022-09-12T15:38:18;1.90;;;1.40;;
31990;SDS011;18508;49.386;8.370;2022-09-12T15:40:51;2.22;;;1.30;;
31990;SDS011;18508;49.386;8.370;2022-09-12T15:43:20;1.70;;;1.23;;
31990;SDS011;18508;49.386;8.370;2022-09-12T15:45:48;1.45;;;1.10;;
31990;SDS011;18508;49.386;8.370;2022-09-12T15:48:19;1.45;;;1.00;;
31990;SDS011;18508;49.386;8.370;2022-09-12T15:50:47;1.52;;;1.13;;
31990;SDS011;18508;49.386;8.370;2022-09-12T15:53:15;1.45;;;1.00;;
31990;SDS011;18508;49.386;8.370;2022-09-12T15:55:45;1.20;;;1.00;;
31990;SDS011;18508;49.386;8.370;2022-09-12T15:58:13;0.98;;;0.70;;
31990;SDS011;18508;49.386;8.370;2022-09-12T16:00:42;1.48;;;1.10;;
31990;SDS011;18508;49.386;8.370;2022-09-12T16:03:14;1.70;;;1.00;;
31990;SDS011;18508;49.386;8.370;2022-09-12T16:05:47;1.10;;;0.73;;